Time;durP1;ratioP1;P1;durP2;ratioP2;P2;SDS_P1;SDS_P2;PMS_P1;PMS_P2;Temp;Humidity;BMP_temperature;BMP_pressure;BME280_temperature;BME280_humidity;BME280_pressure;Samples;Min_cycle;Max_cycle;Signal;HPM_P1;HPM_P2
2024/01/02 00:00:00;;;;;;;4.65;2.42;;;1.80;99.90;;;;;;5033688;28;20503;-73
2024/01/02 00:02:26;;;;;;;5.90;3.05;;;1.90;99.90;;;;;;5035529;28;21194;-74
2024/01/02 00:04:52;;;;;;;6.68;3.15;;;2.00;99.90;;;;;;5035963;28;20025;-74
2024/01/02 00:07:18;;;;;;;5.18;2.72;;;2.00;99.90;;;;;;5038285;28;20062;-74
2024/01/02 00:09:43;;;;;;;7.25;3.17;;;2.10;99.90;;;;;;5039139;28;20040;-74
2024/01/02 00:12:09;;;;;;;6.20;2.97;;;1.90;99.90;;;;;;5039230;28;20020;-74
2024/01/02 00:14:35;;;;;;;5.65;3.38;;;2.10;99.90;;;;;;5038710;28;20037;-74
2024/01/02 00:17:01;;;;;;;5.03;2.55;;;2.20;99.90;;;;;;5039456;28;20029;-74
2024/01/02 00:19:26;;;;;;;4.38;2.30;;;2.20;99.90;;;;;;5040746;28;20047;-74
2024/01/02 00:21:52;;;;;;;4.78;2.72;;;2.10;99.90;;;;;;5040485;28;20544;-74
2024/01/02 00:24:18;;;;;;;5.93;2.78;;;2.20;99.90;;;;;;5040340;28;20061;-74
2024/01/02 00:26:44;;;;;;;5.45;2.58;;;2.30;99.90;;;;;;5040249;28;20107;-74
2024/01/02 00:29:10;;;;;;;5.65;2.67;;;1.90;99.90;;;;;;5040245;28;20104;-74
2024/01/02 00:31:35;;;;;;;6.18;2.67;;;1.90;99.90;;;;;;5040411;28;20068;-73
2024/01/02 00:34:01;;;;;;;4.85;2.30;;;1.80;99.90;;;;;;5040130;28;20527;-74
2024/01/02 00:36:27;;;;;;;7.28;3.17;;;1.90;99.90;;;;;;5039995;28;20518;-73
2024/01/02 00:38:52;;;;;;;4.95;2.30;;;1.90;99.90;;;;;;5040513;28;20081;-74
2024/01/02 00:41:18;;;;;;;5.80;2.92;;;1.90;99.90;;;;;;5040124;28;20090;-73
2024/01/02 00:43:44;;;;;;;8.00;3.13;;;2.10;99.90;;;;;;5039582;28;20028;-74
2024/01/02 00:46:09;;;;;;;5.53;2.70;;;2.20;99.90;;;;;;5040302;28;20025;-74
2024/01/02 00:48:35;;;;;;;7.60;3.33;;;2.30;99.90;;;;;;5039526;28;20033;-74
2024/01/02 00:51:01;;;;;;;5.72;3.40;;;2.40;99.90;;;;;;5039683;28;20025;-73
2024/01/02 00:53:27;;;;;;;5.70;2.47;;;2.50;99.90;;;;;;5040382;28;20135;-73
2024/01/02 00:55:53;;;;;;;6.50;3.30;;;2.60;99.90;;;;;;5040093;28;20064;-74
2024/01/02 00:58:19;;;;;;;8.05;3.03;;;2.70;99.90;;;;;;5039722;28;20029;-74
2024/01/02 01:00:44;;;;;;;6.50;3.00;;;2.60;99.90;;;;;;5038136;28;20045;-74
2024/01/02 01:03:10;;;;;;;6.53;3.30;;;2.80;99.90;;;;;;5040116;28;20100;-74
2024/01/02 01:05:36;;;;;;;5.43;2.95;;;2.60;99.90;;;;;;5039960;28;20025;-74
2024/01/02 01:08:01;;;;;;;6.80;3.13;;;2.50;99.90;;;;;;5040260;28;20079;-74
2024/01/02 01:10:27;;;;;;;5.82;3.08;;;2.50;99.90;;;;;;5039293;28;20441;-74
2024/01/02 01:12:53;;;;;;;7.60;3.60;;;2.50;99.90;;;;;;5039461;28;20106;-74
2024/01/02 01:15:19;;;;;;;8.00;3.38;;;2.50;99.90;;;;;;5038979;28;20086;-74
2024/01/02 01:17:45;;;;;;;7.15;3.75;;;2.70;99.90;;;;;;5039541;28;20033;-73
2024/01/02 01:20:11;;;;;;;5.65;3.30;;;2.60;99.90;;;;;;5039549;28;20430;-74
2024/01/02 01:22:37;;;;;;;5.70;3.47;;;2.60;99.90;;;;;;5039504;28;20091;-73
2024/01/02 01:25:03;;;;;;;6.60;2.95;;;2.60;99.90;;;;;;5039192;28;20025;-74
2024/01/02 01:27:29;;;;;;;5.40;2.92;;;2.60;99.90;;;;;;5039118;28;20700;-74
2024/01/02 01:29:55;;;;;;;5.57;3.10;;;2.50;99.90;;;;;;5039118;28;20032;-74
2024/01/02 01:32:20;;;;;;;4.75;2.83;;;2.50;99.90;;;;;;5039773;28;20086;-74
2024/01/02 01:34:46;;;;;;;6.70;2.67;;;2.30;99.90;;;;;;5038773;28;20045;-74
2024/01/02 01:37:11;;;;;;;7.43;3.40;;;2.30;99.90;;;;;;5038332;28;20033;-74
2024/01/02 01:39:37;;;;;;;4.82;2.28;;;2.40;99.90;;;;;;5038609;28;20025;-74
2024/01/02 01:42:03;;;;;;;5.85;2.20;;;2.30;99.90;;;;;;5038922;28;20055;-74
2024/01/02 01:44:29;;;;;;;6.88;2.33;;;2.00;99.90;;;;;;5036677;28;20060;-74
2024/01/02 01:46:55;;;;;;;5.35;2.88;;;2.00;99.90;;;;;;5039073;28;20049;-74
2024/01/02 01:49:21;;;;;;;5.13;2.50;;;2.00;99.90;;;;;;5038985;28;20044;-74
2024/01/02 01:51:47;;;;;;;4.82;2.15;;;1.90;99.90;;;;;;5039677;28;20083;-74
2024/01/02 01:54:14;;;;;;;5.53;1.92;;;1.90;99.90;;;;;;5038776;28;20064;-74
2024/01/02 01:56:42;;;;;;;5.13;2.60;;;1.80;99.90;;;;;;5038998;28;20728;-73
2024/01/02 01:59:09;;;;;;;4.25;2.13;;;1.90;99.90;;;;;;5039102;28;21072;-74
2024/01/02 02:01:36;;;;;;;6.25;2.75;;;1.90;99.90;;;;;;5038683;28;20601;-74
2024/01/02 02:04:03;;;;;;;4.03;2.03;;;1.70;99.90;;;;;;5038597;28;20446;-74
2024/01/02 02:06:28;;;;;;;5.47;2.40;;;1.60;99.90;;;;;;5037564;28;20025;-74
2024/01/02 02:08:54;;;;;;;4.13;2.20;;;1.60;99.90;;;;;;5038873;28;20029;-74
2024/01/02 02:11:20;;;;;;;8.07;2.90;;;1.80;99.90;;;;;;5038804;28;20166;-73
2024/01/02 02:13:47;;;;;;;5.60;3.17;;;1.80;99.90;;;;;;5039125;28;20111;-74
2024/01/02 02:16:14;;;;;;;7.40;2.90;;;1.80;99.90;;;;;;5038990;28;20044;-74
2024/01/02 02:18:40;;;;;;;7.15;2.03;;;1.80;99.90;;;;;;5038999;28;20037;-74
2024/01/02 02:21:05;;;;;;;5.70;2.42;;;1.80;99.90;;;;;;5039329;28;20039;-74
2024/01/02 02:23:31;;;;;;;4.95;2.35;;;1.80;99.90;;;;;;5042507;28;20021;-74
2024/01/02 02:25:57;;;;;;;4.57;2.80;;;1.90;99.90;;;;;;5042771;28;20517;-74
2024/01/02 02:28:23;;;;;;;3.85;1.90;;;1.90;99.90;;;;;;5043038;28;20062;-74
2024/01/02 02:30:48;;;;;;;4.78;2.45;;;1.90;99.90;;;;;;5042270;28;20510;-74
2024/01/02 02:33:14;;;;;;;5.03;2.20;;;1.90;99.90;;;;;;5042305;28;20489;-74
2024/01/02 02:35:40;;;;;;;4.28;1.98;;;1.80;99.90;;;;;;5042163;28;20631;-74
2024/01/02 02:38:05;;;;;;;5.90;2.63;;;1.70;99.90;;;;;;5042336;28;20478;-74
2024/01/02 02:40:31;;;;;;;4.18;2.08;;;2.00;99.90;;;;;;5042295;28;20033;-74
2024/01/02 02:42:57;;;;;;;4.63;2.35;;;1.80;99.90;;;;;;5042528;28;20025;-74
2024/01/02 02:45:23;;;;;;;5.95;2.00;;;1.50;99.90;;;;;;5041566;28;20087;-74
2024/01/02 02:47:48;;;;;;;4.13;1.70;;;1.50;99.90;;;;;;5042347;28;20082;-74
2024/01/02 02:50:14;;;;;;;4.18;2.10;;;1.50;99.90;;;;;;5042120;28;21459;-74
2024/01/02 02:52:39;;;;;;;4.95;2.28;;;1.40;99.90;;;;;;5042211;28;20537;-74
2024/01/02 02:55:06;;;;;;;4.65;2.00;;;1.30;99.90;;;;;;5041818;28;20483;-74
2024/01/02 02:57:31;;;;;;;5.32;2.60;;;1.50;99.90;;;;;;5041774;28;20037;-74
2024/01/02 02:59:57;;;;;;;3.75;1.92;;;1.50;99.90;;;;;;5042008;28;20033;-74
2024/01/02 03:02:23;;;;;;;3.30;1.90;;;1.60;99.90;;;;;;5041520;28;20035;-73
2024/01/02 03:04:48;;;;;;;5.97;2.30;;;1.40;99.90;;;;;;5042157;28;20025;-74
2024/01/02 03:07:14;;;;;;;4.43;2.10;;;1.40;99.90;;;;;;5042120;28;20530;-73
2024/01/02 03:09:43;;;;;;;4.22;2.08;;;1.40;99.90;;;;;;5042103;28;20032;-74
2024/01/02 03:12:11;;;;;;;4.63;2.28;;;1.30;99.90;;;;;;5041624;28;20495;-74
2024/01/02 03:14:37;;;;;;;3.97;2.35;;;1.30;99.90;;;;;;5039828;28;20090;-74
2024/01/02 03:17:04;;;;;;;3.92;2.10;;;1.40;99.90;;;;;;5041814;28;21852;-74
2024/01/02 03:19:29;;;;;;;5.38;2.38;;;1.30;99.90;;;;;;5041775;28;20025;-74
2024/01/02 03:21:55;;;;;;;3.90;2.15;;;1.50;99.90;;;;;;5041240;28;20090;-74
2024/01/02 03:24:21;;;;;;;5.05;2.45;;;1.80;99.90;;;;;;5041716;28;20033;-74
2024/01/02 03:26:46;;;;;;;4.78;2.30;;;1.90;99.90;;;;;;5041490;28;20554;-74
2024/01/02 03:29:12;;;;;;;6.30;2.40;;;1.90;99.90;;;;;;5041476;28;20432;-74
2024/01/02 03:31:38;;;;;;;7.13;2.58;;;1.90;99.90;;;;;;5041624;28;20033;-73
2024/01/02 03:34:03;;;;;;;5.18;2.50;;;2.10;99.90;;;;;;5041323;28;20040;-74
2024/01/02 03:36:29;;;;;;;3.90;2.15;;;2.10;99.90;;;;;;5041541;28;20132;-74
2024/01/02 03:38:55;;;;;;;3.90;2.22;;;2.10;99.90;;;;;;5041730;28;20047;-74
2024/01/02 03:41:20;;;;;;;4.50;2.38;;;2.00;99.90;;;;;;5041134;28;21097;-74
2024/01/02 03:43:46;;;;;;;5.78;2.22;;;2.00;99.90;;;;;;5040905;28;20031;-74
2024/01/02 03:46:12;;;;;;;4.30;2.00;;;2.00;99.90;;;;;;5041314;28;20105;-74
2024/01/02 03:48:38;;;;;;;4.75;1.90;;;1.90;99.90;;;;;;5041251;28;20024;-73
2024/01/02 03:51:04;;;;;;;5.40;2.25;;;1.80;99.90;;;;;;5040922;28;20037;-74
2024/01/02 03:53:30;;;;;;;3.55;1.70;;;1.80;99.90;;;;;;5041781;28;21199;-74
2024/01/02 03:55:56;;;;;;;4.20;2.00;;;1.80;99.90;;;;;;5040961;28;20044;-74
2024/01/02 03:58:22;;;;;;;5.63;2.80;;;1.90;99.90;;;;;;5041311;28;20040;-74
2024/01/02 04:00:50;;;;;;;4.70;2.45;;;2.10;99.90;;;;;;5040682;28;20505;-73
2024/01/02 04:03:15;;;;;;;5.20;2.17;;;2.10;99.90;;;;;;5036387;28;20033;-72
2024/01/02 04:05:42;;;;;;;6.75;2.63;;;2.10;99.90;;;;;;5034710;28;20115;-72
2024/01/02 04:08:07;;;;;;;5.05;2.47;;;2.10;99.90;;;;;;5034874;28;20110;-73
2024/01/02 04:10:34;;;;;;;5.32;2.60;;;2.10;99.90;;;;;;5035528;28;20111;-73
2024/01/02 04:13:00;;;;;;;4.63;2.25;;;2.00;99.90;;;;;;5034874;28;20025;-72
2024/01/02 04:15:26;;;;;;;6.97;3.28;;;1.90;99.90;;;;;;5034764;28;20044;-72
2024/01/02 04:17:52;;;;;;;4.30;2.20;;;1.80;99.90;;;;;;5031085;28;20085;-72
2024/01/02 04:20:17;;;;;;;4.15;2.25;;;1.90;99.90;;;;;;5032185;28;20033;-73
2024/01/02 04:22:43;;;;;;;4.80;2.20;;;1.90;99.90;;;;;;5032213;28;20075;-72
2024/01/02 04:25:09;;;;;;;4.38;2.05;;;1.70;99.90;;;;;;5034506;28;20068;-72
2024/01/02 04:27:35;;;;;;;5.60;1.90;;;1.70;99.90;;;;;;5035815;28;20104;-73
2024/01/02 04:30:00;;;;;;;4.15;2.00;;;1.60;99.90;;;;;;5035382;28;20035;-72
2024/01/02 04:32:26;;;;;;;4.55;2.33;;;1.60;99.90;;;;;;5035600;28;20313;-72
2024/01/02 04:34:52;;;;;;;4.45;2.17;;;1.50;99.90;;;;;;5034975;28;20346;-73
2024/01/02 04:37:17;;;;;;;6.82;1.98;;;1.50;99.90;;;;;;5035248;28;20044;-72
2024/01/02 04:39:43;;;;;;;5.00;2.17;;;1.50;99.90;;;;;;5034894;28;20497;-72
2024/01/02 04:42:09;;;;;;;4.75;2.63;;;1.50;99.90;;;;;;5035365;28;20079;-72
2024/01/02 04:44:35;;;;;;;6.63;2.28;;;1.60;99.90;;;;;;5034349;28;20056;-72
2024/01/02 04:47:02;;;;;;;4.47;1.92;;;1.70;99.90;;;;;;5034724;28;20383;-72
2024/01/02 04:49:28;;;;;;;5.63;2.30;;;1.80;99.90;;;;;;5034587;28;20021;-72
2024/01/02 04:51:54;;;;;;;4.93;2.13;;;1.80;99.90;;;;;;5035134;28;20083;-72
2024/01/02 04:54:19;;;;;;;4.35;2.28;;;1.90;99.90;;;;;;5034410;28;20028;-72
2024/01/02 04:56:45;;;;;;;5.90;2.42;;;1.70;99.90;;;;;;5035193;28;20463;-73
2024/01/02 04:59:11;;;;;;;4.85;2.22;;;1.70;99.90;;;;;;5032735;28;20067;-72
2024/01/02 05:01:37;;;;;;;4.47;2.03;;;1.70;99.90;;;;;;5031996;28;20116;-72
2024/01/02 05:04:04;;;;;;;5.72;2.10;;;1.70;99.90;;;;;;5031034;28;20021;-72
2024/01/02 05:06:30;;;;;;;4.22;2.50;;;1.80;99.90;;;;;;5031522;28;20467;-72
2024/01/02 05:08:56;;;;;;;10.35;5.43;;;1.90;99.90;;;;;;5031284;28;20169;-73
2024/01/02 05:11:22;;;;;;;5.68;3.00;;;1.90;99.90;;;;;;5031191;28;20383;-72
2024/01/02 05:13:48;;;;;;;3.83;2.33;;;1.90;99.90;;;;;;5031480;28;20245;-72
2024/01/02 05:16:14;;;;;;;6.20;2.83;;;1.90;99.90;;;;;;5030036;28;20646;-72
2024/01/02 05:18:39;;;;;;;4.95;2.33;;;2.00;99.90;;;;;;5031022;28;20177;-72
2024/01/02 05:21:07;;;;;;;6.15;2.13;;;2.00;99.90;;;;;;5030887;28;20442;-72
2024/01/02 05:23:33;;;;;;;6.10;2.80;;;2.00;99.90;;;;;;5030985;28;20028;-72
2024/01/02 05:25:58;;;;;;;4.90;2.33;;;1.90;99.90;;;;;;5031688;28;20021;-72
2024/01/02 05:28:24;;;;;;;4.20;1.92;;;1.80;99.90;;;;;;5031491;28;20110;-72
2024/01/02 05:30:50;;;;;;;4.57;2.53;;;1.70;99.90;;;;;;5031686;28;20044;-73
2024/01/02 05:33:15;;;;;;;4.88;2.55;;;1.70;99.90;;;;;;5030824;28;20032;-72
2024/01/02 05:35:41;;;;;;;4.07;1.92;;;1.80;99.90;;;;;;5030922;28;20105;-71
2024/01/02 05:38:07;;;;;;;5.15;2.20;;;1.70;99.90;;;;;;5031714;28;20025;-72
2024/01/02 05:40:32;;;;;;;5.07;2.25;;;1.70;99.90;;;;;;5030490;28;20297;-72
2024/01/02 05:42:58;;;;;;;5.05;2.50;;;1.80;99.90;;;;;;5030982;28;20651;-71
2024/01/02 05:45:24;;;;;;;6.10;2.42;;;1.80;99.90;;;;;;5030639;28;20128;-73
2024/01/02 05:47:49;;;;;;;5.10;2.03;;;1.60;99.90;;;;;;5030856;28;20064;-72
2024/01/02 05:50:15;;;;;;;4.05;2.13;;;1.70;99.90;;;;;;5030985;28;20036;-72
2024/01/02 05:52:44;;;;;;;4.65;2.00;;;1.70;99.90;;;;;;5031472;28;20087;-72
2024/01/02 05:55:10;;;;;;;4.32;2.17;;;1.80;99.90;;;;;;5030569;28;20495;-72
2024/01/02 05:57:35;;;;;;;7.95;2.47;;;1.90;99.90;;;;;;5033620;28;20352;-72
2024/01/02 06:00:01;;;;;;;4.35;2.55;;;2.00;99.90;;;;;;5034974;28;20036;-72
2024/01/02 06:02:27;;;;;;;6.00;2.47;;;2.00;99.90;;;;;;5034699;28;20040;-73
2024/01/02 06:04:53;;;;;;;4.82;2.60;;;1.90;99.90;;;;;;5034536;28;20129;-72
2024/01/02 06:07:18;;;;;;;3.83;2.05;;;1.90;99.90;;;;;;5034960;28;20032;-72
2024/01/02 06:09:44;;;;;;;4.05;2.03;;;1.80;99.90;;;;;;5034799;28;20060;-72
2024/01/02 06:12:10;;;;;;;4.00;1.83;;;1.60;99.90;;;;;;5034872;28;20130;-72
2024/01/02 06:14:37;;;;;;;4.57;2.50;;;1.50;99.90;;;;;;5034599;28;20121;-72
2024/01/02 06:17:03;;;;;;;4.32;2.42;;;1.60;99.90;;;;;;5034569;28;20059;-72
2024/01/02 06:19:29;;;;;;;5.00;1.95;;;1.60;99.90;;;;;;5034725;28;20479;-71
2024/01/02 06:21:55;;;;;;;4.78;2.40;;;1.50;99.90;;;;;;5034199;28;20039;-72
2024/01/02 06:24:21;;;;;;;6.55;2.35;;;1.50;99.90;;;;;;5034345;28;20040;-72
2024/01/02 06:26:46;;;;;;;4.35;2.13;;;1.70;99.90;;;;;;5034109;28;20033;-72
2024/01/02 06:29:12;;;;;;;5.43;2.45;;;1.60;99.90;;;;;;5034788;28;20091;-71
2024/01/02 06:31:38;;;;;;;3.90;2.10;;;1.60;99.90;;;;;;5034692;28;20040;-72
2024/01/02 06:34:03;;;;;;;6.60;2.58;;;1.60;99.90;;;;;;5034490;28;20082;-72
2024/01/02 06:36:29;;;;;;;5.05;2.50;;;1.50;99.90;;;;;;5034267;28;20122;-72
2024/01/02 06:38:55;;;;;;;5.38;2.33;;;1.40;99.90;;;;;;5034387;28;20079;-72
2024/01/02 06:41:20;;;;;;;7.88;2.58;;;1.30;99.90;;;;;;5034252;28;20709;-72
2024/01/02 06:43:46;;;;;;;4.68;2.03;;;1.40;99.90;;;;;;5034126;28;20673;-72
2024/01/02 06:46:12;;;;;;;5.60;3.08;;;1.30;99.90;;;;;;5034240;28;20025;-72
2024/01/02 06:48:39;;;;;;;4.45;2.33;;;1.30;99.90;;;;;;5034159;28;20029;-72
2024/01/02 06:51:06;;;;;;;4.47;2.10;;;1.20;99.90;;;;;;5034609;28;20319;-72
2024/01/02 06:53:31;;;;;;;4.28;2.25;;;1.10;99.90;;;;;;5034312;28;20096;-72
2024/01/02 06:55:57;;;;;;;5.70;2.30;;;1.50;99.90;;;;;;5034025;28;20488;-72
2024/01/02 06:58:23;;;;;;;5.47;2.40;;;1.50;99.90;;;;;;5034452;28;20079;-72
2024/01/02 07:00:48;;;;;;;4.60;2.33;;;1.40;99.90;;;;;;5034039;28;20091;-72
2024/01/02 07:03:14;;;;;;;4.68;2.08;;;1.40;99.90;;;;;;5033577;28;21425;-71
2024/01/02 07:05:40;;;;;;;5.70;3.08;;;1.50;99.90;;;;;;5036726;28;20036;-73
2024/01/02 07:08:05;;;;;;;4.53;2.47;;;1.50;99.90;;;;;;5036711;28;20029;-72
2024/01/02 07:10:31;;;;;;;4.35;2.17;;;1.60;99.90;;;;;;5036531;28;20620;-72
2024/01/02 07:12:57;;;;;;;6.80;3.00;;;1.60;99.90;;;;;;5036584;28;20040;-72
2024/01/02 07:15:22;;;;;;;4.00;2.20;;;1.50;99.90;;;;;;5036429;28;20029;-72
2024/01/02 07:17:48;;;;;;;6.93;2.38;;;1.50;99.90;;;;;;5036847;28;20167;-72
2024/01/02 07:20:14;;;;;;;4.72;2.22;;;1.50;99.90;;;;;;5036401;28;20376;-72
2024/01/02 07:22:39;;;;;;;5.70;2.03;;;1.60;99.90;;;;;;5037137;28;20043;-72
2024/01/02 07:25:05;;;;;;;4.55;2.38;;;1.60;99.90;;;;;;5036603;28;20033;-72
2024/01/02 07:27:31;;;;;;;3.83;2.17;;;1.40;99.90;;;;;;5036411;28;20124;-72
2024/01/02 07:29:57;;;;;;;5.55;2.55;;;1.30;99.90;;;;;;5036578;28;20403;-72
2024/01/02 07:32:22;;;;;;;6.15;2.10;;;1.30;99.90;;;;;;5036412;28;20486;-72
2024/01/02 07:34:48;;;;;;;3.85;1.98;;;1.30;99.90;;;;;;5035925;28;20057;-72
2024/01/02 07:37:14;;;;;;;4.95;2.10;;;1.30;99.90;;;;;;5035925;28;20028;-72
2024/01/02 07:39:40;;;;;;;4.20;2.13;;;1.50;99.90;;;;;;5035732;28;20055;-72
2024/01/02 07:42:08;;;;;;;4.20;2.25;;;1.60;99.90;;;;;;5036072;28;20037;-72
2024/01/02 07:44:34;;;;;;;3.72;1.85;;;1.50;99.90;;;;;;5035935;28;20029;-72
2024/01/02 07:47:00;;;;;;;4.72;2.40;;;1.70;99.90;;;;;;5036102;28;20240;-72
2024/01/02 07:49:26;;;;;;;5.22;2.47;;;1.60;99.90;;;;;;5035836;28;20378;-72
2024/01/02 07:51:52;;;;;;;4.25;2.00;;;1.70;99.90;;;;;;5035750;28;20025;-72
2024/01/02 07:54:18;;;;;;;6.65;2.38;;;1.60;99.90;;;;;;5035807;28;20039;-71
2024/01/02 07:56:44;;;;;;;3.17;1.83;;;1.60;99.90;;;;;;5035693;28;20041;-73
2024/01/02 07:59:11;;;;;;;6.00;2.95;;;1.80;99.90;;;;;;5035673;28;20039;-72
2024/01/02 08:01:37;;;;;;;3.65;1.90;;;1.80;99.90;;;;;;5035690;28;20025;-72
2024/01/02 08:04:02;;;;;;;4.90;2.30;;;1.90;99.90;;;;;;5035573;28;20051;-72
2024/01/02 08:06:28;;;;;;;5.82;2.75;;;1.80;99.90;;;;;;5034673;28;20029;-72
2024/01/02 08:08:54;;;;;;;4.80;2.33;;;1.80;99.90;;;;;;5035473;28;20078;-72
2024/01/02 08:11:19;;;;;;;6.78;3.03;;;1.90;99.90;;;;;;5035908;28;20049;-72
2024/01/02 08:13:45;;;;;;;5.85;3.13;;;1.80;99.90;;;;;;5032844;28;20110;-72
2024/01/02 08:16:10;;;;;;;7.63;3.42;;;1.60;99.90;;;;;;5035467;28;20075;-72
2024/01/02 08:18:41;;;;;;;4.13;2.53;;;1.60;99.90;;;;;;5035217;28;20029;-72
2024/01/02 08:21:07;;;;;;;7.72;3.47;;;1.60;99.90;;;;;;5035546;28;20059;-72
2024/01/02 08:23:35;;;;;;;6.20;3.40;;;1.60;99.90;;;;;;5035573;28;20024;-72
2024/01/02 08:26:01;;;;;;;6.95;3.70;;;1.70;99.90;;;;;;5035623;28;20116;-72
2024/01/02 08:28:27;;;;;;;7.47;4.85;;;1.70;99.90;;;;;;5034920;28;20174;-72
2024/01/02 08:30:52;;;;;;;5.65;4.13;;;1.70;99.90;;;;;;5034681;28;20033;-72
2024/01/02 08:33:18;;;;;;;4.53;2.88;;;1.70;99.90;;;;;;5035270;28;20388;-72
2024/01/02 08:35:44;;;;;;;4.35;2.40;;;1.80;99.90;;;;;;5034880;28;20149;-71
2024/01/02 08:38:10;;;;;;;4.10;2.38;;;1.90;99.90;;;;;;5034613;28;20029;-72
2024/01/02 08:40:35;;;;;;;4.82;2.15;;;2.00;99.90;;;;;;5035040;28;20395;-71
2024/01/02 08:43:02;;;;;;;6.43;3.40;;;2.00;99.90;;;;;;5035457;28;20604;-71
2024/01/02 08:45:27;;;;;;;4.70;2.85;;;1.90;99.90;;;;;;5035034;28;20471;-71
2024/01/02 08:47:53;;;;;;;6.93;3.40;;;1.90;99.90;;;;;;5035110;28;20043;-72
2024/01/02 08:50:18;;;;;;;6.93;3.40;;;2.00;99.90;;;;;;5033716;28;20029;-71
2024/01/02 08:52:47;;;;;;;5.78;3.33;;;2.00;99.90;;;;;;5031995;28;20058;-72
2024/01/02 08:55:14;;;;;;;8.60;3.00;;;1.90;99.90;;;;;;5031294;28;20037;-71
2024/01/02 08:57:39;;;;;;;6.22;3.33;;;2.00;99.90;;;;;;5032696;28;20379;-71
2024/01/02 09:00:07;;;;;;;6.47;3.58;;;2.20;99.90;;;;;;5034406;28;20033;-72
2024/01/02 09:02:33;;;;;;;5.75;3.33;;;2.10;99.90;;;;;;5034769;28;20237;-72
2024/01/02 09:04:59;;;;;;;4.43;2.60;;;2.10;99.90;;;;;;5035081;28;20035;-72
2024/01/02 09:07:25;;;;;;;5.88;2.92;;;2.10;99.90;;;;;;5034521;28;20029;-72
2024/01/02 09:09:50;;;;;;;4.53;2.35;;;2.30;99.90;;;;;;5034472;28;20041;-72
2024/01/02 09:12:16;;;;;;;4.22;2.35;;;2.40;99.90;;;;;;5033832;28;20036;-72
2024/01/02 09:14:42;;;;;;;5.28;2.35;;;2.40;99.90;;;;;;5034429;28;20029;-72
2024/01/02 09:17:08;;;;;;;7.07;2.45;;;2.40;99.90;;;;;;5034247;28;20033;-72
2024/01/02 09:19:33;;;;;;;5.45;2.63;;;2.50;99.90;;;;;;5034204;28;20013;-72
2024/01/02 09:22:00;;;;;;;4.57;2.42;;;2.50;99.90;;;;;;5034348;28;20477;-72
2024/01/02 09:24:28;;;;;;;4.40;2.47;;;2.50;99.90;;;;;;5033940;28;20028;-72
2024/01/02 09:26:58;;;;;;;5.28;2.38;;;2.60;99.90;;;;;;5034537;28;20067;-73
2024/01/02 09:29:24;;;;;;;3.95;2.10;;;2.60;99.90;;;;;;5034639;28;20331;-73
2024/01/02 09:31:50;;;;;;;4.03;2.20;;;2.60;99.90;;;;;;5033735;28;20560;-73
2024/01/02 09:34:16;;;;;;;3.90;2.17;;;2.60;99.90;;;;;;5034356;28;20033;-73
2024/01/02 09:36:42;;;;;;;10.35;3.38;;;2.60;99.90;;;;;;5034171;28;20056;-73
2024/01/02 09:39:08;;;;;;;5.13;2.78;;;2.60;99.90;;;;;;5034287;28;20878;-73
2024/01/02 09:42:12;;;;;;;3.88;2.17;;;2.50;99.90;;;;;;5034853;28;20040;-72
2024/01/02 09:45:02;;;;;;;37.38;3.70;;;2.60;99.90;;;;;;5015249;28;20045;-73
2024/01/02 09:47:36;;;;;;;8.35;2.95;;;2.70;99.90;;;;;;5033430;28;20067;-73
2024/01/02 09:50:20;;;;;;;5.13;2.65;;;2.90;99.90;;;;;;5033975;28;20215;-72
2024/01/02 09:53:09;;;;;;;7.32;3.35;;;2.80;99.90;;;;;;5034428;28;20084;-73
2024/01/02 09:55:37;;;;;;;5.40;2.50;;;2.90;99.90;;;;;;5033872;28;20087;-72
2024/01/02 09:58:31;;;;;;;5.55;2.75;;;2.90;99.90;;;;;;5034097;28;20029;-72
2024/01/02 10:01:05;;;;;;;5.32;2.22;;;2.80;99.90;;;;;;5034086;28;20544;-72
2024/01/02 10:03:37;;;;;;;8.80;2.55;;;2.90;99.90;;;;;;5033745;28;20028;-72
2024/01/02 10:06:32;;;;;;;6.00;3.13;;;2.90;99.90;;;;;;5034163;28;20067;-72
2024/01/02 10:09:22;;;;;;;6.90;3.65;;;2.80;99.90;;;;;;5021890;28;20045;-72
2024/01/02 10:11:58;;;;;;;5.63;3.33;;;2.90;99.90;;;;;;5033961;28;20059;-73
2024/01/02 10:14:31;;;;;;;6.32;3.35;;;3.00;99.90;;;;;;5033775;28;20025;-72
2024/01/02 10:16:59;;;;;;;7.30;3.05;;;3.00;99.90;;;;;;5034382;28;20467;-73
2024/01/02 10:19:25;;;;;;;7.15;3.78;;;3.10;99.90;;;;;;5033461;28;20029;-72
2024/01/02 10:22:01;;;;;;;7.38;3.25;;;3.10;99.90;;;;;;5034093;28;20521;-72
2024/01/02 10:24:50;;;;;;;6.20;3.63;;;3.20;99.90;;;;;;5034511;28;20024;-72
2024/01/02 10:27:35;;;;;;;8.10;3.75;;;3.20;99.90;;;;;;5033647;28;20072;-73
2024/01/02 10:30:12;;;;;;;6.60;3.25;;;3.20;99.90;;;;;;5033430;28;20057;-72
2024/01/02 10:32:54;;;;;;;6.57;3.40;;;3.20;99.90;;;;;;5033800;28;20051;-72
2024/01/02 10:35:49;;;;;;;8.80;3.80;;;3.30;99.90;;;;;;5033251;28;20048;-72
2024/01/02 10:38:33;;;;;;;6.75;3.65;;;3.40;99.90;;;;;;5032959;28;20053;-72
2024/01/02 10:41:01;;;;;;;6.13;3.50;;;3.50;99.90;;;;;;5033393;28;20017;-72
2024/01/02 10:43:30;;;;;;;6.35;3.30;;;3.60;99.90;;;;;;5035798;28;20132;-73
2024/01/02 10:46:09;;;;;;;7.05;3.17;;;3.60;99.90;;;;;;5037125;28;20036;-72
2024/01/02 10:48:59;;;;;;;5.07;2.83;;;3.60;99.90;;;;;;5037227;28;20021;-73
2024/01/02 10:51:45;;;;;;;5.22;2.50;;;3.50;99.90;;;;;;5036987;28;20025;-72
2024/01/02 10:54:26;;;;;;;7.40;3.00;;;3.70;99.90;;;;;;5036912;28;20395;-72
2024/01/02 10:56:59;;;;;;;6.50;3.33;;;3.90;99.90;;;;;;5037013;28;20530;-72
2024/01/02 10:59:43;;;;;;;5.65;3.08;;;3.80;99.90;;;;;;5037065;28;20041;-72
2024/01/02 11:02:35;;;;;;;5.78;3.38;;;3.70;99.90;;;;;;5037117;28;20086;-72
2024/01/02 11:05:25;;;;;;;5.93;2.80;;;3.80;99.90;;;;;;5036882;28;20029;-72
2024/01/02 11:08:11;;;;;;;6.57;2.50;;;3.70;99.90;;;;;;5037261;28;20162;-72
2024/01/02 11:10:57;;;;;;;7.63;2.70;;;3.80;99.90;;;;;;5036091;28;20025;-72
2024/01/02 11:13:25;;;;;;;8.05;2.50;;;3.80;99.90;;;;;;5036492;28;20052;-72
2024/01/02 11:15:59;;;;;;;9.70;2.90;;;3.70;99.90;;;;;;5036507;28;21395;-72
2024/01/02 11:18:29;;;;;;;5.93;2.80;;;3.80;99.90;;;;;;5036485;28;20130;-72
2024/01/02 11:21:24;;;;;;;6.13;3.50;;;3.90;99.90;;;;;;5036428;28;20028;-73
2024/01/02 11:23:52;;;;;;;7.05;3.33;;;4.00;99.90;;;;;;5036590;28;20617;-73
2024/01/02 11:26:25;;;;;;;5.40;2.92;;;4.00;99.90;;;;;;5036653;28;20557;-73
2024/01/02 11:28:53;;;;;;;4.97;2.72;;;3.90;99.90;;;;;;5035969;28;20605;-72
2024/01/02 11:31:20;;;;;;;8.55;3.88;;;3.80;99.90;;;;;;5035623;28;20033;-72
2024/01/02 11:34:04;;;;;;;5.55;2.95;;;3.90;99.90;;;;;;5035899;28;20609;-72
2024/01/02 11:36:40;;;;;;;7.57;5.60;;;3.80;99.90;;;;;;5035532;28;20041;-72
2024/01/02 11:39:41;;;;;;;11.43;4.28;;;4.00;99.90;;;;;;5036459;28;20025;-72
2024/01/02 11:42:29;;;;;;;11.15;5.03;;;4.10;99.90;;;;;;5016557;28;20176;-72
2024/01/02 11:45:13;;;;;;;7.18;3.80;;;4.30;99.90;;;;;;5036430;28;20379;-72
2024/01/02 11:47:45;;;;;;;5.93;3.50;;;4.30;99.90;;;;;;5036379;28;20025;-72
2024/01/02 11:50:14;;;;;;;7.95;4.25;;;4.20;99.90;;;;;;5035556;28;20033;-72
2024/01/02 11:53:01;;;;;;;14.50;4.32;;;4.30;99.90;;;;;;5036069;28;20029;-72
2024/01/02 11:55:47;;;;;;;7.13;4.50;;;4.50;99.90;;;;;;5035652;28;20338;-72
2024/01/02 11:58:30;;;;;;;6.35;3.80;;;4.60;99.90;;;;;;5036325;28;20056;-73
2024/01/02 12:01:24;;;;;;;6.22;3.60;;;4.60;99.90;;;;;;5033198;28;20025;-74
2024/01/02 12:04:17;;;;;;;5.95;3.67;;;4.80;99.90;;;;;;5025345;28;20103;-74
2024/01/02 12:06:59;;;;;;;5.55;3.35;;;4.80;99.90;;;;;;5036307;28;20098;-73
2024/01/02 12:09:28;;;;;;;9.50;3.08;;;4.60;99.90;;;;;;5036555;28;21235;-73
2024/01/02 12:12:17;;;;;;;6.57;3.80;;;4.90;99.90;;;;;;5036257;28;20644;-74
2024/01/02 12:15:14;;;;;;;7.10;3.58;;;4.70;99.90;;;;;;5036264;28;20033;-74
2024/01/02 12:17:55;;;;;;;6.32;3.40;;;4.90;99.90;;;;;;5023838;28;20033;-74
2024/01/02 12:20:23;;;;;;;6.65;3.60;;;4.90;99.90;;;;;;5036591;28;20095;-74
2024/01/02 12:22:49;;;;;;;6.72;3.28;;;4.80;99.90;;;;;;5036313;28;20055;-74
2024/01/02 12:25:15;;;;;;;7.20;3.95;;;4.70;99.90;;;;;;5036143;28;20071;-74
2024/01/02 12:27:44;;;;;;;6.13;3.55;;;4.90;99.90;;;;;;5036406;28;20029;-74
2024/01/02 12:30:19;;;;;;;8.77;3.17;;;5.00;99.90;;;;;;5036149;28;20637;-74
2024/01/02 12:32:54;;;;;;;6.82;3.55;;;5.10;99.90;;;;;;5036620;28;20515;-74
2024/01/02 12:35:38;;;;;;;6.30;3.17;;;5.20;99.90;;;;;;5036317;28;20052;-74
2024/01/02 12:38:18;;;;;;;8.25;3.97;;;5.00;99.90;;;;;;5036223;28;20673;-74
2024/01/02 12:40:46;;;;;;;7.40;4.40;;;4.90;99.90;;;;;;5036391;28;20124;-74
2024/01/02 12:43:17;;;;;;;6.85;3.60;;;4.90;99.90;;;;;;5036364;28;20033;-74
2024/01/02 12:45:46;;;;;;;7.28;4.07;;;4.90;99.90;;;;;;5036452;28;20040;-74
2024/01/02 12:48:18;;;;;;;5.55;3.13;;;5.00;99.90;;;;;;5036456;28;20033;-74
2024/01/02 12:50:50;;;;;;;6.40;3.50;;;4.90;99.90;;;;;;5036220;28;20112;-73
2024/01/02 12:53:17;;;;;;;5.50;3.13;;;4.80;99.90;;;;;;5036322;28;20117;-73
2024/01/02 12:55:57;;;;;;;8.13;3.72;;;4.70;99.90;;;;;;5035346;28;20159;-74
2024/01/02 12:58:29;;;;;;;7.45;4.10;;;4.70;99.90;;;;;;5032967;28;20123;-73
2024/01/02 13:00:55;;;;;;;6.30;3.97;;;4.80;99.90;;;;;;5032237;28;20027;-74
2024/01/02 13:03:21;;;;;;;5.22;3.47;;;4.70;99.90;;;;;;5033104;28;20464;-73
2024/01/02 13:05:47;;;;;;;7.53;4.18;;;4.70;99.90;;;;;;5032836;28;20024;-74